Wetterdaten: Woche 24.06.13 - 30.06.13 (KW26)
Datum Zeit Temp. A. Feuchte A. Luftdruck Regen Wind Richtung Taupunkt Windchill Windben
24.06.2013 00:00 12,9 C 88 % 1013,4 hPa 0,0 l/m 0,7 km/h (0 Bft) SW 11,0 C 12,9 C 2,3 km/h (1 Bft)
24.06.2013 01:00 13,6 C 87 % 1013,5 hPa 0,0 l/m 1,7 km/h (1 Bft) S 11,5 C 13,6 C 4,5 km/h (1 Bft)
24.06.2013 02:00 12,7 C 89 % 1013,6 hPa 0,0 l/m 1,4 km/h (1 Bft) S 11,0 C 12,7 C 4,1 km/h (1 Bft)
24.06.2013 03:00 12,7 C 89 % 1014,1 hPa 0,0 l/m 2,3 km/h (1 Bft) SW 11,0 C 12,7 C 5,2 km/h (1 Bft)
24.06.2013 04:00 12,4 C 89 % 1014,3 hPa 0,0 l/m 1,3 km/h (1 Bft) S-SW 10,7 C 12,4 C 4,0 km/h (1 Bft)
24.06.2013 05:00 11,6 C 91 % 1014,3 hPa 0,0 l/m 0,7 km/h (0 Bft) S-SW 10,2 C 11,6 C 2,4 km/h (1 Bft)
24.06.2013 06:00 12,7 C 89 % 1014,8 hPa 0,0 l/m 3,3 km/h (1 Bft) S-SW 10,9 C 12,7 C 7,4 km/h (2 Bft)
24.06.2013 07:00 13,9 C 86 % 1015,1 hPa 0,0 l/m 3,2 km/h (1 Bft) SW 11,6 C 13,9 C 7,8 km/h (2 Bft)
24.06.2013 08:00 14,9 C 83 % 1015,5 hPa 0,0 l/m 3,9 km/h (1 Bft) S-SW 12,1 C 14,9 C 9,9 km/h (2 Bft)
24.06.2013 09:00 15,7 C 81 % 1015,9 hPa 0,0 l/m 4,5 km/h (1 Bft) SW 12,5 C 15,7 C 11,4 km/h (2 Bft)
24.06.2013 10:00 17,2 C 74 % 1016,2 hPa 0,0 l/m 5,0 km/h (1 Bft) S 12,5 C 17,2 C 11,7 km/h (2 Bft)
24.06.2013 11:00 16,5 C 79 % 1016,6 hPa 0,2 l/m 3,6 km/h (1 Bft) W 12,8 C 16,5 C 10,5 km/h (2 Bft)
24.06.2013 12:00 17,7 C 75 % 1016,8 hPa 0,0 l/m 3,6 km/h (1 Bft) NW 13,1 C 17,7 C 8,9 km/h (2 Bft)
24.06.2013 13:00 17,1 C 77 % 1017,1 hPa 0,2 l/m 3,9 km/h (1 Bft) N-NW 12,9 C 17,1 C 9,4 km/h (2 Bft)
24.06.2013 14:00 17,4 C 77 % 1017,3 hPa 0,0 l/m 2,1 km/h (1 Bft) W-SW 13,1 C 17,4 C 6,8 km/h (2 Bft)
24.06.2013 15:00 19,5 C 63 % 1017,4 hPa 0,0 l/m 4,3 km/h (1 Bft) W-SW 12,3 C 19,5 C 11,3 km/h (2 Bft)
24.06.2013 16:00 19,6 C 61 % 1017,6 hPa 0,0 l/m 4,3 km/h (1 Bft) W-NW 12,0 C 19,6 C 11,0 km/h (2 Bft)
24.06.2013 17:00 18,8 C 65 % 1018,0 hPa 0,0 l/m 5,1 km/h (1 Bft) W 12,0 C 18,7 C 13,2 km/h (3 Bft)
24.06.2013 18:00 18,7 C 64 % 1018,2 hPa 0,0 l/m 5,1 km/h (1 Bft) NW 11,6 C 18,7 C 12,2 km/h (2 Bft)
24.06.2013 19:00 17,5 C 68 % 1018,8 hPa 0,0 l/m 4,2 km/h (1 Bft) NW 11,5 C 17,4 C 11,0 km/h (2 Bft)
24.06.2013 20:00 16,3 C 73 % 1019,3 hPa 0,0 l/m 2,2 km/h (1 Bft) W-SW 11,4 C 16,3 C 7,0 km/h (2 Bft)
24.06.2013 21:00 15,3 C 79 % 1019,8 hPa 0,0 l/m 2,0 km/h (1 Bft) W-SW 11,7 C 15,3 C 5,9 km/h (2 Bft)
24.06.2013 22:00 14,4 C 85 % 1020,1 hPa 0,0 l/m 1,0 km/h (0 Bft) W 11,9 C 14,4 C 4,4 km/h (1 Bft)
24.06.2013 23:00 13,8 C 88 % 1020,2 hPa 0,0 l/m 0,3 km/h (0 Bft) N 11,9 C 13,8 C 1,9 km/h (1 Bft)
25.06.2013 00:00 13,2 C 91 % 1020,6 hPa 0,0 l/m 0,0 km/h (0 Bft) N 11,7 C 13,2 C 0,0 km/h (0 Bft)
25.06.2013 01:00 12,5 C 92 % 1021,0 hPa 0,0 l/m 0,0 km/h (0 Bft) N 11,3 C 12,5 C 0,0 km/h (0 Bft)
25.06.2013 02:00 12,7 C 92 % 1021,1 hPa 0,0 l/m 0,5 km/h (0 Bft) NW 11,4 C 12,7 C 3,3 km/h (1 Bft)
25.06.2013 03:00 12,7 C 91 % 1021,1 hPa 0,0 l/m 1,9 km/h (1 Bft) NW 11,3 C 12,7 C 6,7 km/h (2 Bft)
25.06.2013 04:00 12,6 C 91 % 1021,2 hPa 0,0 l/m 1,3 km/h (1 Bft) W-NW 11,2 C 12,6 C 5,5 km/h (2 Bft)
25.06.2013 05:00 12,5 C 91 % 1021,3 hPa 0,0 l/m 1,2 km/h (1 Bft) W-NW 11,0 C 12,5 C 4,5 km/h (1 Bft)
25.06.2013 06:00 12,5 C 91 % 1021,3 hPa 0,0 l/m 3,1 km/h (1 Bft) NW 11,1 C 12,5 C 8,4 km/h (2 Bft)
25.06.2013 07:00 12,7 C 89 % 1021,6 hPa 0,0 l/m 5,3 km/h (1 Bft) NW 11,0 C 12,7 C 11,4 km/h (2 Bft)
25.06.2013 08:00 13,2 C 87 % 1021,9 hPa 0,0 l/m 4,5 km/h (1 Bft) N-NW 11,2 C 13,1 C 9,9 km/h (2 Bft)
25.06.2013 09:00 13,7 C 85 % 1022,1 hPa 0,0 l/m 4,8 km/h (1 Bft) N-NW 11,3 C 13,7 C 11,3 km/h (2 Bft)
25.06.2013 10:00 14,6 C 80 % 1022,2 hPa 0,0 l/m 6,1 km/h (2 Bft) N-NW 11,2 C 14,3 C 12,6 km/h (3 Bft)
25.06.2013 11:00 15,0 C 75 % 1021,9 hPa 0,0 l/m 7,5 km/h (2 Bft) NW 10,7 C 14,2 C 14,9 km/h (3 Bft)
25.06.2013 12:00 14,0 C 83 % 1021,9 hPa 0,0 l/m 4,2 km/h (1 Bft) N-NO 11,1 C 14,0 C 9,0 km/h (2 Bft)
25.06.2013 13:00 14,2 C 76 % 1021,9 hPa 0,0 l/m 4,4 km/h (1 Bft) NW 10,0 C 14,1 C 9,9 km/h (2 Bft)
25.06.2013 14:00 14,8 C 72 % 1021,7 hPa 0,0 l/m 8,3 km/h (2 Bft) NW 9,7 C 13,5 C 18,2 km/h (3 Bft)
25.06.2013 15:00 15,1 C 70 % 1022,0 hPa 0,0 l/m 6,3 km/h (2 Bft) NW 9,7 C 14,8 C 16,4 km/h (3 Bft)
25.06.2013 16:00 15,0 C 69 % 1022,3 hPa 0,0 l/m 7,0 km/h (2 Bft) W-NW 9,4 C 14,5 C 17,0 km/h (3 Bft)
25.06.2013 17:00 14,0 C 75 % 1022,6 hPa 0,0 l/m 5,6 km/h (2 Bft) W-NW 9,7 C 13,7 C 13,9 km/h (3 Bft)
25.06.2013 18:00 13,3 C 82 % 1022,6 hPa 0,0 l/m 6,1 km/h (2 Bft) W-NW 10,3 C 13,1 C 16,5 km/h (3 Bft)
25.06.2013 19:00 11,8 C 88 % 1022,9 hPa 0,0 l/m 6,1 km/h (2 Bft) N-NW 10,0 C 11,6 C 15,6 km/h (3 Bft)
25.06.2013 20:00 11,6 C 88 % 1023,0 hPa 0,0 l/m 4,5 km/h (1 Bft) W 9,7 C 11,6 C 12,2 km/h (2 Bft)
25.06.2013 21:00 12,1 C 82 % 1023,2 hPa 0,0 l/m 5,5 km/h (2 Bft) W-NW 9,2 C 12,0 C 14,2 km/h (3 Bft)
25.06.2013 22:00 12,1 C 80 % 1023,5 hPa 0,0 l/m 5,0 km/h (1 Bft) NW 8,7 C 12,1 C 12,1 km/h (2 Bft)
25.06.2013 23:00 11,8 C 80 % 1023,6 hPa 0,0 l/m 4,7 km/h (1 Bft) W 8,4 C 11,8 C 11,6 km/h (2 Bft)
26.06.2013 00:00 11,4 C 83 % 1023,5 hPa 0,0 l/m 4,7 km/h (1 Bft) W 8,5 C 11,4 C 11,6 km/h (2 Bft)
26.06.2013 01:00 11,3 C 85 % 1023,3 hPa 0,0 l/m 4,7 km/h (1 Bft) W 8,9 C 11,3 C 11,7 km/h (2 Bft)
26.06.2013 02:00 11,2 C 87 % 1023,2 hPa 0,0 l/m 4,0 km/h (1 Bft) W 9,1 C 11,2 C 10,5 km/h (2 Bft)
26.06.2013 03:00 10,8 C 87 % 1023,0 hPa 0,0 l/m 3,9 km/h (1 Bft) W-NW 8,6 C 10,8 C 11,1 km/h (2 Bft)
26.06.2013 04:00 10,3 C 86 % 1023,0 hPa 0,0 l/m 4,2 km/h (1 Bft) W-NW 8,0 C 10,3 C 10,6 km/h (2 Bft)
26.06.2013 05:00 9,6 C 88 % 1023,0 hPa 0,0 l/m 4,0 km/h (1 Bft) W 7,7 C 9,6 C 11,4 km/h (2 Bft)
26.06.2013 06:00 9,8 C 87 % 1023,0 hPa 0,0 l/m 4,5 km/h (1 Bft) W 7,8 C 9,8 C 11,8 km/h (2 Bft)
26.06.2013 07:00 10,2 C 85 % 1023,2 hPa 0,0 l/m 4,2 km/h (1 Bft) W-SW 7,8 C 10,2 C 11,1 km/h (2 Bft)
26.06.2013 08:00 11,3 C 81 % 1023,3 hPa 0,0 l/m 5,5 km/h (2 Bft) W-SW 8,2 C 11,3 C 13,8 km/h (3 Bft)
26.06.2013 09:00 11,9 C 79 % 1023,3 hPa 0,0 l/m 5,7 km/h (2 Bft) W 8,3 C 11,8 C 16,1 km/h (3 Bft)
26.06.2013 10:00 12,6 C 75 % 1023,3 hPa 0,0 l/m 6,7 km/h (2 Bft) W 8,3 C 12,2 C 16,4 km/h (3 Bft)
26.06.2013 11:00 13,3 C 70 % 1023,4 hPa 0,0 l/m 6,4 km/h (2 Bft) W 7,9 C 13,0 C 16,8 km/h (3 Bft)
26.06.2013 12:00 13,0 C 71 % 1023,6 hPa 0,0 l/m 5,9 km/h (2 Bft) NW 7,9 C 12,6 C 14,1 km/h (3 Bft)
26.06.2013 13:00 14,0 C 66 % 1023,6 hPa 0,0 l/m 6,8 km/h (2 Bft) W-NW 7,8 C 13,6 C 17,6 km/h (3 Bft)
26.06.2013 14:00 14,5 C 61 % 1023,5 hPa 0,0 l/m 8,2 km/h (2 Bft) W-NW 7,2 C 13,5 C 18,1 km/h (3 Bft)
26.06.2013 15:00 15,3 C 58 % 1023,3 hPa 0,0 l/m 7,7 km/h (2 Bft) NW 7,0 C 14,5 C 19,0 km/h (3 Bft)
26.06.2013 16:00 15,0 C 59 % 1023,2 hPa 0,0 l/m 8,0 km/h (2 Bft) W 7,0 C 14,1 C 19,0 km/h (3 Bft)
26.06.2013 17:00 15,3 C 57 % 1023,0 hPa 0,0 l/m 7,7 km/h (2 Bft) N-NW 6,9 C 14,6 C 18,1 km/h (3 Bft)
26.06.2013 18:00 15,2 C 57 % 1022,9 hPa 0,0 l/m 8,0 km/h (2 Bft) NW 6,8 C 14,3 C 20,6 km/h (4 Bft)
26.06.2013 19:00 14,7 C 59 % 1023,0 hPa 0,0 l/m 6,2 km/h (2 Bft) W-NW 6,8 C 14,5 C 15,7 km/h (3 Bft)
26.06.2013 20:00 13,8 C 62 % 1023,0 hPa 0,0 l/m 4,2 km/h (1 Bft) NW 6,7 C 13,8 C 11,9 km/h (2 Bft)
26.06.2013 21:00 12,3 C 67 % 1022,9 hPa 0,0 l/m 2,1 km/h (1 Bft) W 6,4 C 12,3 C 7,0 km/h (2 Bft)
26.06.2013 22:00 11,3 C 72 % 1023,0 hPa 0,0 l/m 1,2 km/h (1 Bft) W 6,5 C 11,3 C 4,4 km/h (1 Bft)
26.06.2013 23:00 10,9 C 75 % 1023,0 hPa 0,0 l/m 0,2 km/h (0 Bft) SW 6,6 C 10,9 C 1,5 km/h (1 Bft)
27.06.2013 00:00 11,1 C 76 % 1022,9 hPa 0,0 l/m 0,5 km/h (0 Bft) W-NW 7,0 C 11,1 C 2,4 km/h (1 Bft)
27.06.2013 01:00 11,1 C 77 % 1022,6 hPa 0,0 l/m 0,5 km/h (0 Bft) S-SW 7,2 C 11,1 C 2,7 km/h (1 Bft)
27.06.2013 02:00 9,5 C 82 % 1022,2 hPa 0,0 l/m 0,2 km/h (0 Bft) W-SW 6,5 C 9,5 C 1,5 km/h (1 Bft)
27.06.2013 03:00 7,8 C 87 % 1022,1 hPa 0,0 l/m 0,1 km/h (0 Bft) N 5,8 C 7,8 C 0,9 km/h (0 Bft)
27.06.2013 04:00 8,7 C 86 % 1021,9 hPa 0,0 l/m 0,0 km/h (0 Bft) N 6,4 C 8,7 C 0,0 km/h (0 Bft)
27.06.2013 05:00 8,9 C 87 % 1021,7 hPa 0,0 l/m 0,0 km/h (0 Bft) N 6,8 C 8,9 C 0,0 km/h (0 Bft)
27.06.2013 06:00 10,5 C 85 % 1021,6 hPa 0,0 l/m 1,2 km/h (1 Bft) S-SW 8,1 C 10,5 C 3,9 km/h (1 Bft)
27.06.2013 07:00 11,7 C 85 % 1021,5 hPa 0,0 l/m 2,3 km/h (1 Bft) S-SW 9,2 C 11,7 C 6,8 km/h (2 Bft)
27.06.2013 08:00 13,0 C 81 % 1021,4 hPa 0,0 l/m 4,2 km/h (1 Bft) W 9,9 C 13,0 C 11,0 km/h (2 Bft)
27.06.2013 09:00 13,4 C 82 % 1021,3 hPa 0,0 l/m 4,6 km/h (1 Bft) SW 10,3 C 13,4 C 11,2 km/h (2 Bft)
27.06.2013 10:00 14,0 C 80 % 1021,3 hPa 0,0 l/m 3,9 km/h (1 Bft) W 10,6 C 14,0 C 9,4 km/h (2 Bft)
27.06.2013 11:00 15,6 C 68 % 1021,1 hPa 0,0 l/m 5,9 km/h (2 Bft) SW 9,8 C 15,4 C 13,6 km/h (3 Bft)
27.06.2013 12:00 17,0 C 62 % 1021,0 hPa 0,0 l/m 7,9 km/h (2 Bft) W-SW 9,7 C 16,3 C 18,8 km/h (3 Bft)
27.06.2013 13:00 14,0 C 79 % 1021,1 hPa 0,2 l/m 3,4 km/h (1 Bft) NW 10,4 C 14,0 C 8,2 km/h (2 Bft)
27.06.2013 14:00 12,8 C 84 % 1021,2 hPa 1,0 l/m 3,1 km/h (1 Bft) W 10,1 C 12,8 C 8,6 km/h (2 Bft)
27.06.2013 15:00 12,6 C 86 % 1021,0 hPa 0,6 l/m 2,1 km/h (1 Bft) S 10,4 C 12,6 C 7,0 km/h (2 Bft)
27.06.2013 16:00 14,1 C 84 % 1020,8 hPa 0,0 l/m 3,7 km/h (1 Bft) SW 11,4 C 14,1 C 9,1 km/h (2 Bft)
27.06.2013 17:00 15,7 C 76 % 1020,6 hPa 0,0 l/m 5,0 km/h (1 Bft) SW 11,5 C 15,7 C 12,8 km/h (3 Bft)
27.06.2013 18:00 15,5 C 74 % 1020,4 hPa 0,0 l/m 3,3 km/h (1 Bft) SW 10,9 C 15,5 C 8,4 km/h (2 Bft)
27.06.2013 19:00 13,0 C 86 % 1020,5 hPa 2,0 l/m 1,1 km/h (0 Bft) SW 10,6 C 13,0 C 3,3 km/h (1 Bft)
27.06.2013 20:00 13,1 C 88 % 1020,4 hPa 0,0 l/m 0,0 km/h (0 Bft) N 11,2 C 13,1 C 0,0 km/h (0 Bft)
27.06.2013 21:00 12,3 C 91 % 1020,6 hPa 1,8 l/m 1,4 km/h (1 Bft) N-NO 10,9 C 12,3 C 3,5 km/h (1 Bft)
27.06.2013 22:00 11,1 C 93 % 1020,9 hPa 0,2 l/m 0,0 km/h (0 Bft) N 10,0 C 11,1 C 0,4 km/h (0 Bft)
27.06.2013 23:00 10,7 C 94 % 1020,9 hPa 0,0 l/m 0,0 km/h (0 Bft) N 9,8 C 10,7 C 0,0 km/h (0 Bft)
28.06.2013 00:00 10,6 C 95 % 1020,8 hPa 0,0 l/m 0,0 km/h (0 Bft) N 9,8 C 10,6 C 0,0 km/h (0 Bft)
28.06.2013 01:00 10,5 C 95 % 1020,5 hPa 0,2 l/m 0,0 km/h (0 Bft) N 9,8 C 10,5 C 0,0 km/h (0 Bft)
28.06.2013 02:00 10,5 C 95 % 1020,2 hPa 0,0 l/m 0,0 km/h (0 Bft) N 9,7 C 10,5 C 0,0 km/h (0 Bft)
28.06.2013 03:00 10,3 C 96 % 1019,8 hPa 0,0 l/m 0,0 km/h (0 Bft) N 9,6 C 10,3 C 0,0 km/h (0 Bft)
28.06.2013 04:00 10,0 C 95 % 1019,6 hPa 0,0 l/m 0,0 km/h (0 Bft) N 9,3 C 10,0 C 0,3 km/h (0 Bft)
28.06.2013 05:00 9,2 C 96 % 1019,5 hPa 0,0 l/m 0,0 km/h (0 Bft) N 8,6 C 9,2 C 0,0 km/h (0 Bft)
28.06.2013 06:00 9,9 C 96 % 1019,1 hPa 0,0 l/m 0,5 km/h (0 Bft) S 9,2 C 9,9 C 2,1 km/h (1 Bft)
28.06.2013 07:00 11,5 C 92 % 1019,2 hPa 0,0 l/m 3,0 km/h (1 Bft) S-SW 10,2 C 11,5 C 7,8 km/h (2 Bft)
28.06.2013 08:00 13,1 C 83 % 1019,3 hPa 0,0 l/m 5,0 km/h (1 Bft) SW 10,3 C 13,1 C 11,8 km/h (2 Bft)
28.06.2013 09:00 14,6 C 74 % 1018,9 hPa 0,0 l/m 6,7 km/h (2 Bft) SW 10,0 C 14,3 C 13,4 km/h (3 Bft)
28.06.2013 10:00 15,0 C 71 % 1018,8 hPa 0,0 l/m 6,1 km/h (2 Bft) W-SW 9,8 C 14,8 C 12,5 km/h (2 Bft)
28.06.2013 11:00 14,9 C 72 % 1018,9 hPa 0,0 l/m 5,8 km/h (2 Bft) S 9,9 C 14,7 C 11,8 km/h (2 Bft)
28.06.2013 12:00 14,5 C 75 % 1018,9 hPa 0,0 l/m 4,0 km/h (1 Bft) SW 10,1 C 14,5 C 10,1 km/h (2 Bft)
28.06.2013 13:00 14,9 C 75 % 1018,7 hPa 0,0 l/m 4,6 km/h (1 Bft) S-SW 10,6 C 14,9 C 10,9 km/h (2 Bft)
28.06.2013 14:00 15,1 C 73 % 1018,4 hPa 0,0 l/m 5,1 km/h (1 Bft) SW 10,3 C 15,1 C 11,9 km/h (2 Bft)
28.06.2013 15:00 14,1 C 81 % 1018,2 hPa 0,4 l/m 4,4 km/h (1 Bft) SW 10,9 C 14,1 C 10,3 km/h (2 Bft)
28.06.2013 16:00 14,9 C 77 % 1017,9 hPa 0,0 l/m 6,0 km/h (2 Bft) SW 10,9 C 14,7 C 13,7 km/h (3 Bft)
28.06.2013 17:00 14,6 C 77 % 1017,7 hPa 0,0 l/m 6,6 km/h (2 Bft) SW 10,6 C 14,3 C 15,4 km/h (3 Bft)
28.06.2013 18:00 14,6 C 79 % 1017,5 hPa 0,0 l/m 4,6 km/h (1 Bft) SW 10,9 C 14,6 C 12,8 km/h (3 Bft)
28.06.2013 19:00 14,0 C 80 % 1017,5 hPa 0,0 l/m 5,7 km/h (2 Bft) W 10,7 C 14,0 C 14,0 km/h (3 Bft)
28.06.2013 20:00 12,9 C 87 % 1017,5 hPa 0,0 l/m 2,3 km/h (1 Bft) S-SW 10,7 C 12,9 C 6,1 km/h (2 Bft)
28.06.2013 21:00 12,8 C 89 % 1017,5 hPa 0,0 l/m 3,0 km/h (1 Bft) SW 11,1 C 12,8 C 6,7 km/h (2 Bft)
28.06.2013 22:00 12,2 C 92 % 1017,5 hPa 0,8 l/m 1,4 km/h (1 Bft) S-SW 11,0 C 12,2 C 5,2 km/h (1 Bft)
28.06.2013 23:00 12,2 C 93 % 1017,1 hPa 0,0 l/m 2,6 km/h (1 Bft) SW 11,0 C 12,2 C 6,8 km/h (2 Bft)
29.06.2013 00:00 12,2 C 93 % 1016,6 hPa 0,0 l/m 3,1 km/h (1 Bft) S-SW 11,1 C 12,2 C 8,0 km/h (2 Bft)
29.06.2013 01:00 12,1 C 93 % 1016,1 hPa 0,2 l/m 2,2 km/h (1 Bft) S-SW 11,0 C 12,1 C 6,4 km/h (2 Bft)
29.06.2013 02:00 12,1 C 94 % 1015,4 hPa 0,0 l/m 2,1 km/h (1 Bft) S 11,1 C 12,1 C 5,6 km/h (2 Bft)
29.06.2013 03:00 12,0 C 94 % 1014,7 hPa 0,4 l/m 1,9 km/h (1 Bft) S 11,2 C 12,0 C 5,2 km/h (1 Bft)
29.06.2013 04:00 12,1 C 95 % 1014,3 hPa 0,8 l/m 1,3 km/h (1 Bft) S 11,3 C 12,1 C 4,1 km/h (1 Bft)
29.06.2013 05:00 12,2 C 95 % 1013,9 hPa 1,2 l/m 2,3 km/h (1 Bft) S-SO 11,4 C 12,2 C 6,4 km/h (2 Bft)
29.06.2013 06:00 12,3 C 95 % 1013,2 hPa 1,4 l/m 3,4 km/h (1 Bft) SW 11,5 C 12,3 C 8,3 km/h (2 Bft)
29.06.2013 07:00 12,8 C 95 % 1012,8 hPa 0,0 l/m 4,8 km/h (1 Bft) SW 12,0 C 12,8 C 11,6 km/h (2 Bft)
29.06.2013 08:00 13,3 C 94 % 1012,7 hPa 1,4 l/m 5,2 km/h (1 Bft) S 12,4 C 13,3 C 10,3 km/h (2 Bft)
29.06.2013 09:00 13,5 C 94 % 1012,6 hPa 1,4 l/m 5,7 km/h (2 Bft) S 12,6 C 13,3 C 12,6 km/h (3 Bft)
29.06.2013 10:00 13,8 C 94 % 1012,6 hPa 0,2 l/m 6,3 km/h (2 Bft) S 12,9 C 13,5 C 14,1 km/h (3 Bft)
29.06.2013 11:00 14,3 C 95 % 1012,6 hPa 0,2 l/m 6,3 km/h (2 Bft) S-SW 13,4 C 14,1 C 14,0 km/h (3 Bft)
29.06.2013 12:00 14,8 C 94 % 1013,0 hPa 0,0 l/m 3,3 km/h (1 Bft) SW 13,8 C 14,8 C 10,2 km/h (2 Bft)
29.06.2013 13:00 15,3 C 93 % 1013,5 hPa 0,0 l/m 5,4 km/h (1 Bft) W-NW 14,1 C 15,2 C 14,1 km/h (3 Bft)
29.06.2013 14:00 15,3 C 91 % 1014,2 hPa 0,0 l/m 5,7 km/h (2 Bft) W-SW 13,8 C 15,2 C 14,8 km/h (3 Bft)
29.06.2013 15:00 14,2 C 91 % 1015,1 hPa 0,0 l/m 6,9 km/h (2 Bft) NW 12,6 C 13,7 C 17,0 km/h (3 Bft)
29.06.2013 16:00 13,9 C 90 % 1016,1 hPa 0,0 l/m 6,7 km/h (2 Bft) W 12,3 C 13,6 C 16,1 km/h (3 Bft)
29.06.2013 17:00 14,7 C 84 % 1017,0 hPa 0,0 l/m 8,1 km/h (2 Bft) W 12,0 C 13,8 C 19,0 km/h (3 Bft)
29.06.2013 18:00 15,2 C 75 % 1017,8 hPa 0,0 l/m 7,8 km/h (2 Bft) W-NW 10,8 C 14,4 C 20,5 km/h (4 Bft)
29.06.2013 19:00 14,7 C 70 % 1018,4 hPa 0,0 l/m 6,9 km/h (2 Bft) W 9,2 C 14,1 C 15,6 km/h (3 Bft)
29.06.2013 20:00 13,6 C 71 % 1019,1 hPa 0,0 l/m 4,7 km/h (1 Bft) W-NW 8,4 C 13,6 C 13,0 km/h (3 Bft)
29.06.2013 21:00 11,9 C 76 % 1019,8 hPa 0,0 l/m 2,3 km/h (1 Bft) N-NW 7,8 C 11,9 C 7,4 km/h (2 Bft)
29.06.2013 22:00 10,4 C 81 % 1020,6 hPa 0,0 l/m 1,3 km/h (1 Bft) W 7,3 C 10,4 C 6,4 km/h (2 Bft)
29.06.2013 23:00 9,2 C 86 % 1021,2 hPa 0,0 l/m 0,5 km/h (0 Bft) N 6,9 C 9,2 C 2,4 km/h (1 Bft)
30.06.2013 00:00 8,0 C 89 % 1021,6 hPa 0,0 l/m 0,2 km/h (0 Bft) N 6,3 C 8,0 C 1,5 km/h (1 Bft)
30.06.2013 01:00 7,1 C 92 % 1021,8 hPa 0,0 l/m 0,0 km/h (0 Bft) N 5,9 C 7,1 C 0,1 km/h (0 Bft)
30.06.2013 02:00 6,9 C 93 % 1021,8 hPa 0,0 l/m 0,6 km/h (0 Bft) SW 5,8 C 6,9 C 3,3 km/h (1 Bft)
30.06.2013 03:00 6,7 C 93 % 1021,5 hPa 0,0 l/m 0,3 km/h (0 Bft) W 5,6 C 6,7 C 1,9 km/h (1 Bft)
30.06.2013 04:00 6,2 C 93 % 1021,6 hPa 0,0 l/m 1,2 km/h (1 Bft) SW 5,2 C 6,2 C 3,3 km/h (1 Bft)
30.06.2013 05:00 5,5 C 94 % 1021,6 hPa 0,0 l/m 1,0 km/h (0 Bft) SW 4,7 C 5,5 C 3,7 km/h (1 Bft)
30.06.2013 06:00 6,9 C 94 % 1021,6 hPa 0,0 l/m 1,7 km/h (1 Bft) SW 5,9 C 6,9 C 6,1 km/h (2 Bft)
30.06.2013 07:00 8,8 C 91 % 1021,6 hPa 0,0 l/m 2,6 km/h (1 Bft) SW 7,4 C 8,8 C 8,2 km/h (2 Bft)
30.06.2013 08:00 10,5 C 87 % 1021,7 hPa 0,2 l/m 2,4 km/h (1 Bft) W 8,5 C 10,5 C 8,7 km/h (2 Bft)
30.06.2013 09:00 12,0 C 83 % 1021,7 hPa 0,0 l/m 4,0 km/h (1 Bft) W 9,2 C 12,0 C 10,2 km/h (2 Bft)
30.06.2013 10:00 13,4 C 76 % 1021,4 hPa 0,0 l/m 5,1 km/h (1 Bft) W-NW 9,3 C 13,4 C 13,4 km/h (3 Bft)
30.06.2013 11:00 14,5 C 70 % 1021,2 hPa 0,0 l/m 6,4 km/h (2 Bft) SW 9,2 C 14,4 C 16,6 km/h (3 Bft)
30.06.2013 12:00 15,2 C 67 % 1021,2 hPa 0,0 l/m 6,7 km/h (2 Bft) W 9,1 C 14,8 C 16,9 km/h (3 Bft)
30.06.2013 13:00 14,7 C 71 % 1021,1 hPa 0,0 l/m 4,4 km/h (1 Bft) W-SW 9,6 C 14,7 C 11,7 km/h (2 Bft)
30.06.2013 14:00 14,9 C 73 % 1020,8 hPa 0,0 l/m 5,0 km/h (1 Bft) W-SW 10,2 C 14,9 C 12,8 km/h (3 Bft)
30.06.2013 15:00 14,4 C 78 % 1020,6 hPa 0,0 l/m 5,7 km/h (2 Bft) S-SW 10,6 C 14,4 C 14,9 km/h (3 Bft)
30.06.2013 16:00 14,6 C 78 % 1020,1 hPa 0,0 l/m 5,1 km/h (1 Bft) SW 10,7 C 14,5 C 13,6 km/h (3 Bft)
30.06.2013 17:00 14,7 C 78 % 1019,7 hPa 0,0 l/m 4,0 km/h (1 Bft) S-SW 11,0 C 14,7 C 10,6 km/h (2 Bft)
30.06.2013 18:00 15,2 C 78 % 1019,0 hPa 0,0 l/m 3,6 km/h (1 Bft) S-SW 11,4 C 15,2 C 10,1 km/h (2 Bft)
30.06.2013 19:00 15,1 C 79 % 1018,7 hPa 0,0 l/m 2,6 km/h (1 Bft) SW 11,5 C 15,1 C 6,8 km/h (2 Bft)
30.06.2013 20:00 15,3 C 80 % 1018,3 hPa 0,0 l/m 2,5 km/h (1 Bft) SW 11,8 C 15,3 C 5,5 km/h (2 Bft)
30.06.2013 21:00 14,6 C 83 % 1018,0 hPa 0,0 l/m 0,5 km/h (0 Bft) SW 11,7 C 14,6 C 2,3 km/h (1 Bft)
30.06.2013 22:00 13,7 C 87 % 1017,9 hPa 0,0 l/m 0,0 km/h (0 Bft) N 11,5 C 13,7 C 0,0 km/h (0 Bft)
30.06.2013 23:00 13,4 C 89 % 1017,8 hPa 0,0 l/m 0,0 km/h (0 Bft) N 11,6 C 13,4 C 0,0 km/h (0 Bft)
Min-Datum _ 30.06.13 26.06.13 29.06.13 - 24.06.13 - 30.06.13 30.06.13 24.06.13
_ Min-Zeit 05:15 17:25 09:10 - 00:05 - 05:15 05:15 00:05
Minimum _ 5,4 C 54 % 1012,5 hPa - 0,0 km/h (0 Bft) - 4,5 C 5,4 C 0,0 km/h (0 Bft)
Max-Datum _ 24.06.13 28.06.13 26.06.13 27.06.13 25.06.13 - 29.06.13 24.06.13 29.06.13
_ Max-Zeit 16:35 03:00 00:00 19:10 14:30 - 13:30 16:35 18:25
Maximum _ 20,4 C 96 % 1023,7 hPa 2,0 l/m 12,5 km/h
NW (2 Bft)
- 14,4 C 20,4 C 33,8 km/h
NW (5 Bft)
Durchschnitt _ 13,0 C 82 % 1019,7 hPa #15,0 l/m 3,6 km/h (1 Bft) SW 9,9 C 12,9 C 9,1 km/h (2 Bft)